createdAt,value
2023-05-19T00:02:11.530Z,23.34
2023-05-19T00:04:40.610Z,23.96
2023-05-19T00:07:10.609Z,24.03
2023-05-19T00:09:39.183Z,24.48
2023-05-19T00:12:08.013Z,24.26
2023-05-19T00:14:36.654Z,24.47
2023-05-19T00:17:05.193Z,23.18
2023-05-19T00:19:33.898Z,23.23
2023-05-19T00:22:02.262Z,23.08
2023-05-19T00:24:30.820Z,23.04
2023-05-19T00:26:59.238Z,24.82
2023-05-19T00:29:27.729Z,24.41
2023-05-19T00:31:56.575Z,23.36
2023-05-19T00:34:25.014Z,25.12
2023-05-19T00:36:53.439Z,24.39
2023-05-19T00:39:21.851Z,25.22
2023-05-19T00:41:50.346Z,24.65
2023-05-19T00:44:18.750Z,24.42
2023-05-19T00:46:47.137Z,24.17
2023-05-19T00:49:16.619Z,24.84
2023-05-19T00:51:46.127Z,24.63
2023-05-19T00:54:14.748Z,24.81
2023-05-19T00:56:43.126Z,25.32
2023-05-19T00:59:11.553Z,24.42
2023-05-19T01:01:40.039Z,24.03
2023-05-19T01:04:10.477Z,23.87
2023-05-19T01:06:39.128Z,24.24
2023-05-19T01:09:07.579Z,24.11
2023-05-19T01:11:35.929Z,24.92
2023-05-19T01:14:04.464Z,24.97
2023-05-19T01:16:54.748Z,25.49
2023-05-19T01:19:41.993Z,25.21
2023-05-19T01:22:31.025Z,24.86
2023-05-19T01:25:10.390Z,24.76
2023-05-19T01:27:46.862Z,25.99
2023-05-19T01:30:27.844Z,25.66
2023-05-19T01:32:59.474Z,25.57
2023-05-19T01:35:28.694Z,26.03
2023-05-19T01:37:58.004Z,26.15
2023-05-19T01:40:28.154Z,25.70
2023-05-19T01:42:58.074Z,27.34
2023-05-19T01:45:28.496Z,26.23
2023-05-19T01:47:58.863Z,25.88
2023-05-19T01:50:27.477Z,26.52
2023-05-19T01:52:56.180Z,26.24
2023-05-19T01:55:24.739Z,26.53
2023-05-19T01:58:11.813Z,26.06
2023-05-19T02:00:43.284Z,26.76
2023-05-19T02:03:30.792Z,27.21
2023-05-19T02:05:59.202Z,28.15
2023-05-19T02:08:30.746Z,29.00
2023-05-19T02:11:18.670Z,29.31
2023-05-19T02:13:49.387Z,31.33
2023-05-19T02:16:18.396Z,28.86
2023-05-19T02:18:48.060Z,28.09
2023-05-19T02:21:16.604Z,27.42
2023-05-19T02:23:45.048Z,27.74
2023-05-19T02:26:13.370Z,29.10
2023-05-19T02:28:41.750Z,28.03
2023-05-19T02:31:10.109Z,28.61
2023-05-19T02:33:38.456Z,27.57
2023-05-19T02:36:07.007Z,27.30
2023-05-19T02:38:36.222Z,27.75
2023-05-19T02:41:04.689Z,28.08
2023-05-19T02:43:33.066Z,27.10
2023-05-19T02:46:01.515Z,26.58
2023-05-19T02:48:29.901Z,27.46
2023-05-19T02:50:58.227Z,27.35
2023-05-19T02:53:26.773Z,27.25
2023-05-19T02:55:55.153Z,26.93
2023-05-19T02:58:23.514Z,27.99
2023-05-19T03:00:52.252Z,27.44
2023-05-19T03:03:20.613Z,27.37
2023-05-19T03:05:49.086Z,27.54
2023-05-19T03:08:17.449Z,28.23
2023-05-19T03:10:46.665Z,28.25
2023-05-19T03:13:17.037Z,28.71
2023-05-19T03:15:45.438Z,28.04
2023-05-19T03:18:13.908Z,28.91
2023-05-19T03:20:44.708Z,28.76
2023-05-19T03:23:13.134Z,28.96
2023-05-19T03:25:41.578Z,28.70
2023-05-19T03:28:10.114Z,29.79
2023-05-19T03:30:38.497Z,28.77
2023-05-19T03:33:06.941Z,29.38
2023-05-19T03:35:35.594Z,30.15
2023-05-19T03:38:04.008Z,29.62
2023-05-19T03:40:32.552Z,28.99
2023-05-19T03:43:01.127Z,30.77
2023-05-19T03:45:29.552Z,29.35
2023-05-19T03:47:58.025Z,28.79
2023-05-19T03:50:29.252Z,28.01
2023-05-19T03:52:57.682Z,27.95
2023-05-19T03:55:26.743Z,28.50
2023-05-19T03:57:56.734Z,27.89
2023-05-19T04:00:25.126Z,28.81
2023-05-19T04:02:53.793Z,29.30
2023-05-19T04:05:22.219Z,29.29
2023-05-19T04:07:51.039Z,29.82
2023-05-19T04:10:19.783Z,28.50
2023-05-19T04:12:48.127Z,30.37
2023-05-19T04:15:16.728Z,32.20
2023-05-19T04:17:45.273Z,31.37
2023-05-19T04:20:13.914Z,30.28
2023-05-19T04:22:42.387Z,31.29
2023-05-19T04:25:10.863Z,32.55
2023-05-19T04:27:39.542Z,31.39
2023-05-19T04:30:09.434Z,32.47
2023-05-19T04:32:39.597Z,32.16
2023-05-19T04:35:08.294Z,31.35
2023-05-19T04:37:38.388Z,31.18
2023-05-19T04:40:09.451Z,30.91
2023-05-19T04:42:41.243Z,32.81
2023-05-19T04:45:09.942Z,32.16
2023-05-19T04:47:38.366Z,29.78
2023-05-19T04:50:07.323Z,30.91
2023-05-19T04:52:36.234Z,30.26
2023-05-19T04:55:04.817Z,30.36
2023-05-19T04:57:33.177Z,31.67
2023-05-19T05:00:01.659Z,32.41
2023-05-19T05:02:30.176Z,31.32
2023-05-19T05:04:58.517Z,29.30
2023-05-19T05:07:27.027Z,29.57
2023-05-19T05:09:55.722Z,31.13
2023-05-19T05:12:24.332Z,28.72
2023-05-19T05:14:52.877Z,30.54
2023-05-19T05:17:21.584Z,29.58
2023-05-19T05:19:50.337Z,28.81
2023-05-19T05:22:18.887Z,31.27
2023-05-19T05:24:47.533Z,29.06
2023-05-19T05:27:16.075Z,29.03
2023-05-19T05:29:44.521Z,30.35
2023-05-19T05:32:13.048Z,28.77
2023-05-19T05:34:41.930Z,28.61
2023-05-19T05:37:10.710Z,27.17
2023-05-19T05:39:39.842Z,28.41
2023-05-19T05:42:11.219Z,29.75
2023-05-19T05:44:39.639Z,29.19
2023-05-19T05:47:08.473Z,30.09
2023-05-19T05:49:38.084Z,28.57
2023-05-19T05:52:08.465Z,29.88
2023-05-19T05:54:37.894Z,29.79
2023-05-19T05:57:06.533Z,28.67
2023-05-19T05:59:35.185Z,27.19
2023-05-19T06:02:03.972Z,29.68
2023-05-19T06:04:32.350Z,28.70
2023-05-19T06:07:01.726Z,27.43
2023-05-19T06:09:30.458Z,26.63
2023-05-19T06:12:01.868Z,26.70
2023-05-19T06:14:30.337Z,26.51
2023-05-19T06:16:58.729Z,27.13
2023-05-19T06:19:27.165Z,28.63
2023-05-19T06:21:55.780Z,26.93
2023-05-19T06:24:24.221Z,27.99
2023-05-19T06:26:52.598Z,26.76
2023-05-19T06:29:21.288Z,27.26
2023-05-19T06:31:50.057Z,26.26
2023-05-19T06:34:18.689Z,26.46
2023-05-19T06:36:47.207Z,26.53
2023-05-19T06:39:15.644Z,27.84
2023-05-19T06:41:44.184Z,29.45
2023-05-19T06:44:12.548Z,27.62
2023-05-19T06:46:41.037Z,27.15
2023-05-19T06:49:09.692Z,26.21
2023-05-19T06:51:38.173Z,26.82
2023-05-19T06:54:06.741Z,26.95
2023-05-19T06:56:35.192Z,27.30
2023-05-19T06:59:04.108Z,26.96
2023-05-19T07:01:32.498Z,26.99
2023-05-19T07:04:01.092Z,27.51
2023-05-19T07:06:29.800Z,26.07
2023-05-19T07:08:58.149Z,26.30
2023-05-19T07:11:27.020Z,26.37
2023-05-19T07:13:55.528Z,26.53
2023-05-19T07:16:24.817Z,25.39
2023-05-19T07:18:53.283Z,25.53
2023-05-19T07:21:21.715Z,26.99
2023-05-19T07:23:50.076Z,26.09
2023-05-19T07:26:18.487Z,25.99
2023-05-19T07:28:46.866Z,26.79
2023-05-19T07:31:15.539Z,27.36
2023-05-19T07:33:44.025Z,28.40
2023-05-19T07:36:12.501Z,26.03
2023-05-19T07:38:40.929Z,27.57
2023-05-19T07:41:09.490Z,27.04
2023-05-19T07:43:37.970Z,25.52
2023-05-19T07:46:06.515Z,26.82
2023-05-19T07:48:34.932Z,27.25
2023-05-19T07:51:03.575Z,26.14
2023-05-19T07:53:32.110Z,26.37
2023-05-19T07:56:00.534Z,27.84
2023-05-19T07:58:29.044Z,27.79
2023-05-19T08:00:58.786Z,26.25
2023-05-19T08:03:27.865Z,24.58
2023-05-19T08:05:56.569Z,25.09
2023-05-19T08:08:25.113Z,24.26
2023-05-19T08:10:54.477Z,24.41
2023-05-19T08:13:22.917Z,25.72
2023-05-19T08:15:51.373Z,24.62
2023-05-19T08:18:20.274Z,24.89
2023-05-19T08:20:48.713Z,24.53
2023-05-19T08:23:17.593Z,24.13
2023-05-19T08:25:46.010Z,24.07
2023-05-19T08:28:14.390Z,26.90
2023-05-19T08:30:42.757Z,24.94
2023-05-19T08:33:11.647Z,23.81
2023-05-19T08:35:40.141Z,24.82
2023-05-19T08:38:08.523Z,25.30
2023-05-19T08:40:37.656Z,25.39
2023-05-19T08:43:06.177Z,23.78
2023-05-19T08:45:35.671Z,23.42
2023-05-19T08:48:04.315Z,23.22
2023-05-19T08:50:36.358Z,24.71
2023-05-19T08:53:18.163Z,23.86
2023-05-19T08:55:59.012Z,23.60
2023-05-19T08:58:28.787Z,23.37
2023-05-19T09:00:57.873Z,23.47
2023-05-19T09:03:26.966Z,22.53
2023-05-19T09:05:55.390Z,22.77
2023-05-19T09:08:23.763Z,22.48
2023-05-19T09:10:52.167Z,22.70
2023-05-19T09:13:21.645Z,21.30
2023-05-19T09:15:50.722Z,20.95
2023-05-19T09:18:19.129Z,20.78
2023-05-19T09:20:47.753Z,20.40
2023-05-19T09:23:17.442Z,19.72
2023-05-19T09:25:49.140Z,20.10
2023-05-19T09:28:31.666Z,20.81
2023-05-19T09:31:00.427Z,21.06
2023-05-19T09:33:29.486Z,20.37
2023-05-19T09:35:58.134Z,20.06
2023-05-19T09:38:27.084Z,20.35
2023-05-19T09:40:59.897Z,20.21
2023-05-19T09:43:33.499Z,19.80
2023-05-19T09:46:06.746Z,19.99
2023-05-19T09:48:36.487Z,19.67
2023-05-19T09:51:08.064Z,19.85
2023-05-19T09:53:36.791Z,20.23
2023-05-19T09:56:05.392Z,20.69
2023-05-19T09:58:37.101Z,20.01
2023-05-19T10:01:07.626Z,20.63
2023-05-19T10:03:36.851Z,19.81
2023-05-19T10:06:07.034Z,19.12
2023-05-19T10:08:36.877Z,19.04
2023-05-19T10:11:05.345Z,19.40
2023-05-19T10:13:34.760Z,19.67
2023-05-19T10:16:03.467Z,19.67
2023-05-19T10:18:33.486Z,18.93
2023-05-19T10:21:02.434Z,20.02
2023-05-19T10:23:30.853Z,19.37
2023-05-19T10:26:01.311Z,18.58
2023-05-19T10:28:35.016Z,18.68
2023-05-19T10:31:06.699Z,18.58
2023-05-19T10:33:55.813Z,19.47
2023-05-19T10:36:29.236Z,18.64
2023-05-19T10:39:06.246Z,18.63
2023-05-19T10:41:50.964Z,18.28
2023-05-19T10:44:23.564Z,18.30
2023-05-19T10:46:54.095Z,19.14
2023-05-19T10:49:23.607Z,18.02
2023-05-19T10:51:52.330Z,18.39
2023-05-19T10:54:39.141Z,17.42
2023-05-19T10:57:08.450Z,17.86
2023-05-19T10:59:39.216Z,18.05
2023-05-19T11:02:08.729Z,18.60
2023-05-19T11:04:50.129Z,18.67
2023-05-19T11:07:21.662Z,18.15
2023-05-19T11:09:53.380Z,18.27
2023-05-19T11:12:25.545Z,18.26
2023-05-19T11:14:57.888Z,17.43
2023-05-19T11:17:27.467Z,17.14
2023-05-19T11:19:56.822Z,17.58
2023-05-19T11:22:26.429Z,17.72
2023-05-19T11:24:55.307Z,17.93
2023-05-19T11:27:33.749Z,17.56
2023-05-19T11:30:11.525Z,17.53
2023-05-19T11:32:42.137Z,16.79
2023-05-19T11:35:10.986Z,17.19
2023-05-19T11:37:41.484Z,16.98
2023-05-19T11:40:11.027Z,17.74
2023-05-19T11:42:39.480Z,16.92
2023-05-19T11:45:08.294Z,17.54
2023-05-19T11:47:50.976Z,18.22
2023-05-19T11:50:25.630Z,17.90
2023-05-19T11:52:54.742Z,17.11
2023-05-19T11:55:23.180Z,17.72
2023-05-19T12:00:31.612Z,16.88
2023-05-19T12:03:00.297Z,17.10
2023-05-19T12:05:29.482Z,17.67
2023-05-19T12:07:58.176Z,17.53
2023-05-19T12:10:27.310Z,17.31
2023-05-19T12:12:55.804Z,17.21
2023-05-19T12:15:25.394Z,16.67
2023-05-19T12:17:53.717Z,17.09
2023-05-19T12:20:22.900Z,17.16
2023-05-19T12:22:51.481Z,17.16
2023-05-19T12:25:20.371Z,16.93
2023-05-19T12:27:49.662Z,16.97
2023-05-19T12:30:18.461Z,17.08
2023-05-19T12:32:49.055Z,16.55
2023-05-19T12:35:17.561Z,18.25
2023-05-19T12:37:46.861Z,17.33
2023-05-19T12:40:16.585Z,16.95
2023-05-19T12:42:45.135Z,16.89
2023-05-19T12:45:13.494Z,17.20
2023-05-19T12:47:41.931Z,17.22
2023-05-19T12:50:10.701Z,17.24
2023-05-19T12:52:43.484Z,17.79
2023-05-19T12:55:12.141Z,16.78
2023-05-19T12:57:41.840Z,16.31
2023-05-19T13:00:25.626Z,17.40
2023-05-19T13:03:01.702Z,17.10
2023-05-19T13:05:34.436Z,16.94
2023-05-19T13:08:10.363Z,16.42
2023-05-19T13:10:39.888Z,17.00
2023-05-19T13:13:08.857Z,16.36
2023-05-19T13:15:38.221Z,17.37
2023-05-19T13:18:08.718Z,16.96
2023-05-19T13:20:38.013Z,17.48
2023-05-19T13:23:06.683Z,17.29
2023-05-19T13:25:35.100Z,17.73
2023-05-19T13:28:05.617Z,18.05
2023-05-19T13:30:39.063Z,17.59
2023-05-19T13:33:07.840Z,16.58
2023-05-19T13:35:39.425Z,16.04
2023-05-19T13:38:10.055Z,16.27
2023-05-19T13:40:39.584Z,15.53
2023-05-19T13:43:08.733Z,16.49
2023-05-19T13:45:37.364Z,17.21
2023-05-19T13:48:07.352Z,16.86
2023-05-19T13:50:36.113Z,16.40
2023-05-19T13:53:04.638Z,15.98
2023-05-19T13:55:33.157Z,16.94
2023-05-19T13:58:01.553Z,16.42
2023-05-19T14:00:31.813Z,15.81
2023-05-19T14:03:01.802Z,16.62
2023-05-19T14:05:31.120Z,17.77
2023-05-19T14:08:01.168Z,16.45
2023-05-19T14:10:29.682Z,16.21
2023-05-19T14:15:34.553Z,16.63
2023-05-19T14:18:04.752Z,16.06
2023-05-19T14:20:34.200Z,17.21
2023-05-19T14:23:03.024Z,15.63
2023-05-19T14:25:31.526Z,17.22
2023-05-19T14:28:00.194Z,17.26
2023-05-19T14:30:28.982Z,17.56
2023-05-19T14:32:57.581Z,16.76
2023-05-19T14:35:26.304Z,16.90
2023-05-19T14:37:54.764Z,16.47
2023-05-19T14:40:23.253Z,18.07
2023-05-19T14:42:51.649Z,17.46
2023-05-19T14:45:20.880Z,16.55
2023-05-19T14:47:49.536Z,17.77
2023-05-19T14:50:18.013Z,17.41
2023-05-19T14:52:46.309Z,16.52
2023-05-19T14:55:14.684Z,16.30
2023-05-19T14:57:43.130Z,16.50
2023-05-19T15:00:12.084Z,16.38
2023-05-19T15:02:40.494Z,16.82
2023-05-19T15:05:09.222Z,16.33
2023-05-19T15:07:38.354Z,16.06
2023-05-19T15:10:07.313Z,15.58
2023-05-19T15:12:35.759Z,16.92
2023-05-19T15:15:05.056Z,17.54
2023-05-19T15:17:33.824Z,16.57
2023-05-19T15:20:02.438Z,17.08
2023-05-19T15:22:30.955Z,16.81
2023-05-19T15:24:59.312Z,16.76
2023-05-19T15:27:27.904Z,16.88
2023-05-19T15:29:56.250Z,16.05
2023-05-19T15:32:24.681Z,17.17
2023-05-19T15:34:53.105Z,16.26
2023-05-19T15:37:21.580Z,16.20
2023-05-19T15:39:50.083Z,16.99
2023-05-19T15:42:18.440Z,17.55
2023-05-19T15:44:47.009Z,18.00
2023-05-19T15:47:15.467Z,17.40
2023-05-19T15:49:43.849Z,17.10
2023-05-19T15:52:12.166Z,16.87
2023-05-19T15:54:40.871Z,16.35
2023-05-19T15:57:09.375Z,15.91
2023-05-19T15:59:37.730Z,16.80
2023-05-19T16:02:06.272Z,16.44
2023-05-19T16:04:34.973Z,15.98
2023-05-19T16:07:03.354Z,15.87
2023-05-19T16:09:31.826Z,16.24
2023-05-19T16:12:00.385Z,16.11
2023-05-19T16:14:32.003Z,15.73
2023-05-19T16:17:00.816Z,16.45
2023-05-19T16:19:29.171Z,17.37
2023-05-19T16:21:57.557Z,16.71
2023-05-19T16:24:26.004Z,16.35
2023-05-19T16:26:54.535Z,16.46
2023-05-19T16:29:22.850Z,16.97
2023-05-19T16:31:51.349Z,16.81
2023-05-19T16:34:19.794Z,17.48
2023-05-19T16:36:48.232Z,15.88
2023-05-19T16:39:16.759Z,16.20
2023-05-19T16:41:45.123Z,16.97
2023-05-19T16:44:14.660Z,16.38
2023-05-19T16:46:43.117Z,16.83
2023-05-19T16:49:11.822Z,16.75
2023-05-19T16:51:40.142Z,15.99
2023-05-19T16:54:08.440Z,16.85
2023-05-19T16:56:36.809Z,16.53
2023-05-19T16:59:05.239Z,16.04
2023-05-19T17:01:33.674Z,15.70
2023-05-19T17:04:02.130Z,16.17
2023-05-19T17:06:31.167Z,16.56
2023-05-19T17:08:59.531Z,15.93
2023-05-19T17:11:27.973Z,15.91
2023-05-19T17:13:56.436Z,15.85
2023-05-19T17:16:24.871Z,16.61
2023-05-19T17:18:53.276Z,16.56
2023-05-19T17:21:21.715Z,16.48
2023-05-19T17:23:50.182Z,16.64
2023-05-19T17:26:18.630Z,17.18
2023-05-19T17:28:47.109Z,17.10
2023-05-19T17:31:15.869Z,16.50
2023-05-19T17:33:44.406Z,16.27
2023-05-19T17:36:12.811Z,16.77
2023-05-19T17:38:41.949Z,16.39
2023-05-19T17:41:10.359Z,17.27
2023-05-19T17:43:40.563Z,16.97
2023-05-19T17:46:09.327Z,17.66
2023-05-19T17:48:37.695Z,17.28
2023-05-19T17:51:09.168Z,17.05
2023-05-19T17:53:37.727Z,16.90
2023-05-19T17:56:08.750Z,16.84
2023-05-19T17:58:37.301Z,16.60
2023-05-19T18:01:06.019Z,16.51
2023-05-19T18:03:34.658Z,16.37
2023-05-19T18:06:03.186Z,17.25
2023-05-19T18:08:32.305Z,17.08
2023-05-19T18:11:00.812Z,16.55
2023-05-19T18:13:29.205Z,18.41
2023-05-19T18:15:59.633Z,18.11
2023-05-19T18:18:28.036Z,17.13
2023-05-19T18:20:56.645Z,17.92
2023-05-19T18:23:25.097Z,18.08
2023-05-19T18:25:53.595Z,17.77
2023-05-19T18:28:22.816Z,17.76
2023-05-19T18:31:01.127Z,17.17
2023-05-19T18:33:31.030Z,16.99
2023-05-19T18:35:59.850Z,18.67
2023-05-19T18:38:28.280Z,17.93
2023-05-19T18:40:56.850Z,17.99
2023-05-19T18:43:25.243Z,17.86
2023-05-19T18:45:53.750Z,17.66
2023-05-19T18:48:22.538Z,16.77
2023-05-19T18:50:51.291Z,17.47
2023-05-19T18:53:20.830Z,17.42
2023-05-19T18:55:49.281Z,18.59
2023-05-19T18:58:18.401Z,17.89
2023-05-19T19:00:47.023Z,19.04
2023-05-19T19:03:15.945Z,17.77
2023-05-19T19:05:46.060Z,17.89
2023-05-19T19:08:14.435Z,17.28
2023-05-19T19:10:42.832Z,17.96
2023-05-19T19:13:11.221Z,18.94
2023-05-19T19:15:39.753Z,18.60
2023-05-19T19:18:08.483Z,18.13
2023-05-19T19:20:37.038Z,18.44
2023-05-19T19:23:06.693Z,19.15
2023-05-19T19:25:35.283Z,18.69
2023-05-19T19:28:03.846Z,18.06
2023-05-19T19:30:32.549Z,18.22
2023-05-19T19:33:01.110Z,18.06
2023-05-19T19:35:29.660Z,19.07
2023-05-19T19:37:58.623Z,17.89
2023-05-19T19:40:27.016Z,17.42
2023-05-19T19:42:55.421Z,17.56
2023-05-19T19:45:24.066Z,19.68
2023-05-19T19:47:52.470Z,18.17
2023-05-19T19:50:20.890Z,19.18
2023-05-19T19:52:56.518Z,18.46
2023-05-19T19:55:24.929Z,17.78
2023-05-19T19:57:53.243Z,17.69
2023-05-19T20:00:21.670Z,17.78
2023-05-19T20:03:02.894Z,17.58
2023-05-19T20:05:32.758Z,17.54
2023-05-19T20:08:01.369Z,18.29
2023-05-19T20:10:29.812Z,18.18
2023-05-19T20:12:59.322Z,18.11
2023-05-19T20:15:27.827Z,18.26
2023-05-19T20:17:56.310Z,18.00
2023-05-19T20:20:24.729Z,17.99
2023-05-19T20:22:53.150Z,18.02
2023-05-19T20:25:21.618Z,18.64
2023-05-19T20:27:50.014Z,18.50
2023-05-19T20:30:18.567Z,18.69
2023-05-19T20:32:47.217Z,19.16
2023-05-19T20:35:15.914Z,18.96
2023-05-19T20:37:44.381Z,19.70
2023-05-19T20:40:12.865Z,18.84
2023-05-19T20:42:41.342Z,19.56
2023-05-19T20:45:09.989Z,19.91
2023-05-19T20:47:38.678Z,19.36
2023-05-19T20:50:07.303Z,19.37
2023-05-19T20:52:35.943Z,19.49
2023-05-19T20:55:04.569Z,19.08
2023-05-19T20:57:33.049Z,18.84
2023-05-19T21:00:01.490Z,18.89
2023-05-19T21:02:29.923Z,19.27
2023-05-19T21:04:58.485Z,19.86
2023-05-19T21:07:26.923Z,19.63
2023-05-19T21:09:56.267Z,19.52
2023-05-19T21:12:25.230Z,20.36
2023-05-19T21:14:53.732Z,20.52
2023-05-19T21:17:22.195Z,19.58
2023-05-19T21:19:52.647Z,19.66
2023-05-19T21:22:21.156Z,19.44
2023-05-19T21:24:49.470Z,20.03
2023-05-19T21:27:17.902Z,19.89
2023-05-19T21:29:46.313Z,19.86
2023-05-19T21:32:14.744Z,20.18
2023-05-19T21:34:43.272Z,19.84
2023-05-19T21:37:11.706Z,20.05
2023-05-19T21:39:40.049Z,20.17
2023-05-19T21:42:08.413Z,20.24
2023-05-19T21:44:36.996Z,19.62
2023-05-19T21:47:05.489Z,19.52
2023-05-19T21:49:33.845Z,19.69
2023-05-19T21:52:02.212Z,19.82
2023-05-19T21:54:30.666Z,20.69
2023-05-19T21:56:59.152Z,20.67
2023-05-19T21:59:27.810Z,20.69
2023-05-19T22:01:56.213Z,20.71
2023-05-19T22:04:24.643Z,21.05
2023-05-19T22:06:53.050Z,21.13
2023-05-19T22:09:21.624Z,20.80
2023-05-19T22:11:50.325Z,20.37
2023-05-19T22:14:18.725Z,20.70
2023-05-19T22:16:47.682Z,21.40
2023-05-19T22:19:16.595Z,20.42
2023-05-19T22:21:44.998Z,20.81
2023-05-19T22:24:13.527Z,20.61
2023-05-19T22:26:46.260Z,20.29
2023-05-19T22:29:18.375Z,21.17
2023-05-19T22:31:47.398Z,20.60
2023-05-19T22:34:15.807Z,21.03
2023-05-19T22:36:45.947Z,20.74
2023-05-19T22:39:14.414Z,20.87
2023-05-19T22:41:42.827Z,21.31
2023-05-19T22:44:15.462Z,21.10
2023-05-19T22:46:46.615Z,21.86
2023-05-19T22:49:15.075Z,21.36
2023-05-19T22:51:43.580Z,20.98
2023-05-19T22:54:11.993Z,21.06
2023-05-19T22:56:44.369Z,21.67
2023-05-19T22:59:13.840Z,21.43
2023-05-19T23:01:42.343Z,21.31
2023-05-19T23:04:11.482Z,22.75
2023-05-19T23:06:39.958Z,22.34
2023-05-19T23:09:08.355Z,23.02
2023-05-19T23:11:36.805Z,23.62
2023-05-19T23:14:05.600Z,22.77
2023-05-19T23:16:34.004Z,22.15
2023-05-19T23:19:02.533Z,23.61
2023-05-19T23:21:32.416Z,22.93
2023-05-19T23:24:00.964Z,22.93
2023-05-19T23:26:29.293Z,24.10
2023-05-19T23:28:57.695Z,24.86
2023-05-19T23:31:26.139Z,23.02
2023-05-19T23:33:54.557Z,23.47
2023-05-19T23:36:23.290Z,23.46
2023-05-19T23:38:51.652Z,22.77
2023-05-19T23:41:19.970Z,23.22
2023-05-19T23:43:48.279Z,23.01
2023-05-19T23:46:16.758Z,23.49
2023-05-19T23:48:45.230Z,22.53
2023-05-19T23:51:13.751Z,22.77
2023-05-19T23:53:42.355Z,22.84
2023-05-19T23:56:10.823Z,23.07
2023-05-19T23:58:39.172Z,24.13
